Terminal Aerodrome Forecast
Issued by NWS

Current Version | Previous Version | Text Only | Print | Product List | Glossary On
Versions: 1 2 3 4 5 6 7 8 9 10 11 12 13 14
296
FTUS46 KMFR 291145
TAFOTH
TAF
KOTH 291145Z 2912/3012 16005KT P6SM OVC018
     FM291700 34008KT P6SM OVC023
     FM292000 34014KT P6SM FEW025 BKN040
     FM292200 34016G24KT P6SM BKN040
     FM300300 35008KT P6SM OVC020=

USA.gov is the U.S. government's official web portal to all federal, state and local government web resources and services.